sensor_id;sensor_type;location;lat;lon;timestamp;P1;durP1;ratioP1;P2;durP2;ratioP2
55065;SDS011;40964;42.114;24.220;2022-08-11T00:00:34;6.63;;;4.57;;
55065;SDS011;40964;42.114;24.220;2022-08-11T00:03:06;6.65;;;4.47;;
55065;SDS011;40964;42.114;24.220;2022-08-11T00:05:38;6.88;;;4.72;;
55065;SDS011;40964;42.114;24.220;2022-08-11T00:08:10;6.22;;;4.90;;
55065;SDS011;40964;42.114;24.220;2022-08-11T00:10:45;5.97;;;4.63;;
55065;SDS011;40964;42.114;24.220;2022-08-11T00:13:17;8.27;;;4.75;;
55065;SDS011;40964;42.114;24.220;2022-08-11T00:15:44;6.25;;;4.82;;
55065;SDS011;40964;42.114;24.220;2022-08-11T00:18:11;11.57;;;5.03;;
55065;SDS011;40964;42.114;24.220;2022-08-11T00:20:39;6.53;;;4.88;;
55065;SDS011;40964;42.114;24.220;2022-08-11T00:23:14;8.40;;;4.65;;
55065;SDS011;40964;42.114;24.220;2022-08-11T00:25:42;5.28;;;4.35;;
55065;SDS011;40964;42.114;24.220;2022-08-11T00:28:27;6.80;;;4.85;;
55065;SDS011;40964;42.114;24.220;2022-08-11T00:30:55;7.20;;;4.70;;
55065;SDS011;40964;42.114;24.220;2022-08-11T00:33:23;5.75;;;4.43;;
55065;SDS011;40964;42.114;24.220;2022-08-11T00:35:56;6.00;;;4.30;;
55065;SDS011;40964;42.114;24.220;2022-08-11T00:38:25;6.60;;;4.40;;
55065;SDS011;40964;42.114;24.220;2022-08-11T00:43:46;6.80;;;4.40;;
55065;SDS011;40964;42.114;24.220;2022-08-11T00:46:28;6.85;;;4.32;;
55065;SDS011;40964;42.114;24.220;2022-08-11T01:00:32;6.78;;;4.05;;
55065;SDS011;40964;42.114;24.220;2022-08-11T01:11:12;6.05;;;4.65;;
55065;SDS011;40964;42.114;24.220;2022-08-11T01:31:01;7.95;;;4.45;;
55065;SDS011;40964;42.114;24.220;2022-08-11T01:39:30;6.90;;;4.32;;
55065;SDS011;40964;42.114;24.220;2022-08-11T01:47:58;8.35;;;4.47;;
55065;SDS011;40964;42.114;24.220;2022-08-11T01:55:46;6.13;;;4.75;;
55065;SDS011;40964;42.114;24.220;2022-08-11T02:04:08;7.68;;;4.35;;
55065;SDS011;40964;42.114;24.220;2022-08-11T02:15:46;5.63;;;4.65;;
55065;SDS011;40964;42.114;24.220;2022-08-11T02:20:45;5.72;;;4.20;;
55065;SDS011;40964;42.114;24.220;2022-08-11T02:26:23;7.32;;;4.85;;
55065;SDS011;40964;42.114;24.220;2022-08-11T02:40:37;8.18;;;5.20;;
55065;SDS011;40964;42.114;24.220;2022-08-11T02:46:25;7.93;;;4.80;;
55065;SDS011;40964;42.114;24.220;2022-08-11T02:48:59;7.68;;;4.95;;
55065;SDS011;40964;42.114;24.220;2022-08-11T02:52:04;9.10;;;4.60;;
55065;SDS011;40964;42.114;24.220;2022-08-11T02:57:52;7.63;;;5.05;;
55065;SDS011;40964;42.114;24.220;2022-08-11T03:00:23;6.70;;;5.63;;
55065;SDS011;40964;42.114;24.220;2022-08-11T03:08:30;10.75;;;6.00;;
55065;SDS011;40964;42.114;24.220;2022-08-11T03:11:21;10.20;;;5.50;;
55065;SDS011;40964;42.114;24.220;2022-08-11T03:15:11;7.50;;;4.50;;
55065;SDS011;40964;42.114;24.220;2022-08-11T03:17:41;6.75;;;4.20;;
55065;SDS011;40964;42.114;24.220;2022-08-11T03:33:59;5.80;;;4.22;;
55065;SDS011;40964;42.114;24.220;2022-08-11T03:47:48;10.55;;;5.30;;
55065;SDS011;40964;42.114;24.220;2022-08-11T04:30:18;7.70;;;5.05;;
55065;SDS011;40964;42.114;24.220;2022-08-11T04:41:13;8.73;;;5.18;;
55065;SDS011;40964;42.114;24.220;2022-08-11T04:52:27;6.65;;;5.00;;
55065;SDS011;40964;42.114;24.220;2022-08-11T05:07:19;9.00;;;5.57;;
55065;SDS011;40964;42.114;24.220;2022-08-11T05:12:52;6.07;;;5.15;;
55065;SDS011;40964;42.114;24.220;2022-08-11T05:15:45;8.73;;;5.18;;
55065;SDS011;40964;42.114;24.220;2022-08-11T05:18:47;7.63;;;5.68;;
55065;SDS011;40964;42.114;24.220;2022-08-11T05:21:33;11.98;;;6.00;;
55065;SDS011;40964;42.114;24.220;2022-08-11T05:24:22;10.88;;;5.53;;
55065;SDS011;40964;42.114;24.220;2022-08-11T05:27:11;10.35;;;5.35;;
55065;SDS011;40964;42.114;24.220;2022-08-11T05:36:01;7.93;;;4.60;;
55065;SDS011;40964;42.114;24.220;2022-08-11T05:38:36;7.20;;;4.40;;
55065;SDS011;40964;42.114;24.220;2022-08-11T05:41:24;5.47;;;4.63;;
55065;SDS011;40964;42.114;24.220;2022-08-11T05:44:16;9.75;;;5.80;;
55065;SDS011;40964;42.114;24.220;2022-08-11T05:47:02;7.38;;;5.68;;
55065;SDS011;40964;42.114;24.220;2022-08-11T05:49:48;10.18;;;5.32;;
55065;SDS011;40964;42.114;24.220;2022-08-11T05:52:34;9.18;;;5.55;;
55065;SDS011;40964;42.114;24.220;2022-08-11T05:55:19;6.30;;;4.85;;
55065;SDS011;40964;42.114;24.220;2022-08-11T05:58:04;6.32;;;5.03;;
55065;SDS011;40964;42.114;24.220;2022-08-11T06:00:39;6.57;;;5.40;;
55065;SDS011;40964;42.114;24.220;2022-08-11T06:03:10;7.72;;;5.18;;
55065;SDS011;40964;42.114;24.220;2022-08-11T06:05:46;5.70;;;4.45;;
55065;SDS011;40964;42.114;24.220;2022-08-11T06:08:12;4.90;;;4.25;;
55065;SDS011;40964;42.114;24.220;2022-08-11T06:10:42;5.88;;;4.20;;
55065;SDS011;40964;42.114;24.220;2022-08-11T06:13:09;6.63;;;4.40;;
55065;SDS011;40964;42.114;24.220;2022-08-11T06:15:43;5.32;;;4.40;;
55065;SDS011;40964;42.114;24.220;2022-08-11T06:21:12;6.18;;;4.28;;
55065;SDS011;40964;42.114;24.220;2022-08-11T06:23:33;8.13;;;4.20;;
55065;SDS011;40964;42.114;24.220;2022-08-11T06:25:59;5.53;;;4.50;;
55065;SDS011;40964;42.114;24.220;2022-08-11T06:28:35;6.22;;;4.18;;
55065;SDS011;40964;42.114;24.220;2022-08-11T06:31:20;5.38;;;4.47;;
55065;SDS011;40964;42.114;24.220;2022-08-11T06:39:08;4.85;;;4.30;;
55065;SDS011;40964;42.114;24.220;2022-08-11T06:42:04;4.70;;;4.30;;
55065;SDS011;40964;42.114;24.220;2022-08-11T06:44:40;4.82;;;4.05;;
55065;SDS011;40964;42.114;24.220;2022-08-11T06:47:09;4.43;;;4.03;;
55065;SDS011;40964;42.114;24.220;2022-08-11T06:49:39;5.47;;;4.28;;
55065;SDS011;40964;42.114;24.220;2022-08-11T06:52:45;5.40;;;4.28;;
55065;SDS011;40964;42.114;24.220;2022-08-11T06:55:13;4.88;;;4.18;;
55065;SDS011;40964;42.114;24.220;2022-08-11T06:58:05;7.18;;;4.45;;
55065;SDS011;40964;42.114;24.220;2022-08-11T07:00:55;9.73;;;4.68;;
55065;SDS011;40964;42.114;24.220;2022-08-11T07:03:22;11.10;;;4.88;;
55065;SDS011;40964;42.114;24.220;2022-08-11T07:14:51;9.98;;;4.38;;
55065;SDS011;40964;42.114;24.220;2022-08-11T07:17:44;5.90;;;4.32;;
55065;SDS011;40964;42.114;24.220;2022-08-11T07:20:13;5.45;;;3.92;;
55065;SDS011;40964;42.114;24.220;2022-08-11T07:23:00;5.03;;;3.97;;
55065;SDS011;40964;42.114;24.220;2022-08-11T07:25:49;5.70;;;3.67;;
55065;SDS011;40964;42.114;24.220;2022-08-11T07:28:37;6.68;;;4.32;;
55065;SDS011;40964;42.114;24.220;2022-08-11T07:31:23;5.00;;;4.07;;
55065;SDS011;40964;42.114;24.220;2022-08-11T07:34:24;4.68;;;3.83;;
55065;SDS011;40964;42.114;24.220;2022-08-11T07:36:46;5.05;;;3.95;;
55065;SDS011;40964;42.114;24.220;2022-08-11T07:39:19;8.30;;;4.50;;
55065;SDS011;40964;42.114;24.220;2022-08-11T07:41:47;5.47;;;4.10;;
55065;SDS011;40964;42.114;24.220;2022-08-11T07:44:15;7.30;;;4.20;;
55065;SDS011;40964;42.114;24.220;2022-08-11T07:46:43;6.90;;;4.13;;
55065;SDS011;40964;42.114;24.220;2022-08-11T07:49:30;5.53;;;4.40;;
55065;SDS011;40964;42.114;24.220;2022-08-11T07:52:15;6.32;;;4.35;;
55065;SDS011;40964;42.114;24.220;2022-08-11T07:54:50;4.38;;;3.97;;
55065;SDS011;40964;42.114;24.220;2022-08-11T07:57:17;4.97;;;4.20;;
55065;SDS011;40964;42.114;24.220;2022-08-11T08:00:02;7.13;;;4.00;;
55065;SDS011;40964;42.114;24.220;2022-08-11T08:02:49;5.85;;;4.10;;
55065;SDS011;40964;42.114;24.220;2022-08-11T08:05:33;6.63;;;4.63;;
55065;SDS011;40964;42.114;24.220;2022-08-11T08:08:18;6.20;;;4.75;;
55065;SDS011;40964;42.114;24.220;2022-08-11T08:11:02;4.82;;;3.80;;
55065;SDS011;40964;42.114;24.220;2022-08-11T08:13:47;6.40;;;4.05;;
55065;SDS011;40964;42.114;24.220;2022-08-11T08:16:32;5.57;;;4.15;;
55065;SDS011;40964;42.114;24.220;2022-08-11T08:19:18;4.82;;;3.92;;
55065;SDS011;40964;42.114;24.220;2022-08-11T08:21:44;6.85;;;3.88;;
55065;SDS011;40964;42.114;24.220;2022-08-11T08:24:11;4.70;;;3.97;;
55065;SDS011;40964;42.114;24.220;2022-08-11T08:26:39;5.53;;;4.18;;
55065;SDS011;40964;42.114;24.220;2022-08-11T08:29:22;5.80;;;3.58;;
55065;SDS011;40964;42.114;24.220;2022-08-11T08:32:08;4.40;;;3.47;;
55065;SDS011;40964;42.114;24.220;2022-08-11T08:34:36;6.43;;;4.43;;
55065;SDS011;40964;42.114;24.220;2022-08-11T08:37:04;4.60;;;4.15;;
55065;SDS011;40964;42.114;24.220;2022-08-11T08:39:31;6.20;;;4.25;;
55065;SDS011;40964;42.114;24.220;2022-08-11T08:42:03;6.70;;;3.97;;
55065;SDS011;40964;42.114;24.220;2022-08-11T08:44:35;4.82;;;4.00;;
55065;SDS011;40964;42.114;24.220;2022-08-11T08:47:06;4.68;;;4.22;;
55065;SDS011;40964;42.114;24.220;2022-08-11T08:49:36;3.88;;;3.53;;
55065;SDS011;40964;42.114;24.220;2022-08-11T08:52:07;8.07;;;3.90;;
55065;SDS011;40964;42.114;24.220;2022-08-11T08:54:37;3.90;;;3.30;;
55065;SDS011;40964;42.114;24.220;2022-08-11T08:57:06;5.53;;;4.10;;
55065;SDS011;40964;42.114;24.220;2022-08-11T08:59:36;4.38;;;3.97;;
55065;SDS011;40964;42.114;24.220;2022-08-11T09:02:04;3.78;;;3.38;;
55065;SDS011;40964;42.114;24.220;2022-08-11T09:04:31;4.82;;;3.70;;
55065;SDS011;40964;42.114;24.220;2022-08-11T09:06:59;7.95;;;3.90;;
55065;SDS011;40964;42.114;24.220;2022-08-11T09:09:30;6.55;;;3.55;;
55065;SDS011;40964;42.114;24.220;2022-08-11T09:11:57;3.78;;;3.42;;
55065;SDS011;40964;42.114;24.220;2022-08-11T09:14:24;3.55;;;3.25;;
55065;SDS011;40964;42.114;24.220;2022-08-11T09:17:16;4.60;;;3.83;;
55065;SDS011;40964;42.114;24.220;2022-08-11T09:19:43;4.25;;;3.80;;
55065;SDS011;40964;42.114;24.220;2022-08-11T09:22:10;4.30;;;3.90;;
55065;SDS011;40964;42.114;24.220;2022-08-11T09:24:55;4.53;;;3.97;;
55065;SDS011;40964;42.114;24.220;2022-08-11T09:27:40;3.92;;;3.60;;
55065;SDS011;40964;42.114;24.220;2022-08-11T09:30:06;5.30;;;3.50;;
55065;SDS011;40964;42.114;24.220;2022-08-11T09:32:33;4.93;;;3.70;;
55065;SDS011;40964;42.114;24.220;2022-08-11T09:35:00;5.53;;;3.83;;
55065;SDS011;40964;42.114;24.220;2022-08-11T09:37:27;4.20;;;3.80;;
55065;SDS011;40964;42.114;24.220;2022-08-11T09:40:14;3.80;;;3.25;;
55065;SDS011;40964;42.114;24.220;2022-08-11T09:43:00;6.38;;;3.28;;
55065;SDS011;40964;42.114;24.220;2022-08-11T09:45:47;4.85;;;3.30;;
55065;SDS011;40964;42.114;24.220;2022-08-11T09:48:20;3.58;;;3.10;;
55065;SDS011;40964;42.114;24.220;2022-08-11T09:50:50;4.07;;;3.30;;
55065;SDS011;40964;42.114;24.220;2022-08-11T09:53:21;3.15;;;2.85;;
55065;SDS011;40964;42.114;24.220;2022-08-11T09:55:47;3.47;;;3.17;;
55065;SDS011;40964;42.114;24.220;2022-08-11T09:58:15;3.50;;;3.20;;
55065;SDS011;40964;42.114;24.220;2022-08-11T10:00:42;3.40;;;3.10;;
55065;SDS011;40964;42.114;24.220;2022-08-11T10:03:12;3.47;;;2.95;;
55065;SDS011;40964;42.114;24.220;2022-08-11T10:05:46;3.05;;;2.85;;
55065;SDS011;40964;42.114;24.220;2022-08-11T10:08:31;3.42;;;3.05;;
55065;SDS011;40964;42.114;24.220;2022-08-11T10:11:01;3.90;;;3.35;;
55065;SDS011;40964;42.114;24.220;2022-08-11T10:13:29;3.38;;;3.08;;
55065;SDS011;40964;42.114;24.220;2022-08-11T10:15:59;3.50;;;3.20;;
55065;SDS011;40964;42.114;24.220;2022-08-11T10:18:40;3.20;;;2.90;;
55065;SDS011;40964;42.114;24.220;2022-08-11T10:23:55;4.95;;;2.88;;
55065;SDS011;40964;42.114;24.220;2022-08-11T10:26:42;3.65;;;3.30;;
55065;SDS011;40964;42.114;24.220;2022-08-11T10:32:11;4.68;;;2.70;;
55065;SDS011;40964;42.114;24.220;2022-08-11T10:34:57;3.60;;;3.08;;
55065;SDS011;40964;42.114;24.220;2022-08-11T10:37:25;5.30;;;2.95;;
55065;SDS011;40964;42.114;24.220;2022-08-11T10:42:24;2.60;;;2.40;;
55065;SDS011;40964;42.114;24.220;2022-08-11T10:45:09;3.53;;;2.60;;
55065;SDS011;40964;42.114;24.220;2022-08-11T10:47:55;3.20;;;2.90;;
55065;SDS011;40964;42.114;24.220;2022-08-11T10:50:22;4.30;;;2.90;;
55065;SDS011;40964;42.114;24.220;2022-08-11T10:53:07;3.20;;;2.90;;
55065;SDS011;40964;42.114;24.220;2022-08-11T10:55:52;3.25;;;2.95;;
55065;SDS011;40964;42.114;24.220;2022-08-11T10:58:37;2.63;;;2.38;;
55065;SDS011;40964;42.114;24.220;2022-08-11T11:01:12;3.47;;;3.17;;
55065;SDS011;40964;42.114;24.220;2022-08-11T11:03:40;3.10;;;2.75;;
55065;SDS011;40964;42.114;24.220;2022-08-11T11:06:17;2.85;;;2.60;;
55065;SDS011;40964;42.114;24.220;2022-08-11T11:08:50;3.97;;;3.15;;
55065;SDS011;40964;42.114;24.220;2022-08-11T11:14:14;4.43;;;3.20;;
55065;SDS011;40964;42.114;24.220;2022-08-11T11:17:01;3.22;;;2.90;;
55065;SDS011;40964;42.114;24.220;2022-08-11T11:20:04;4.93;;;3.40;;
55065;SDS011;40964;42.114;24.220;2022-08-11T11:22:31;3.00;;;2.75;;
55065;SDS011;40964;42.114;24.220;2022-08-11T11:25:12;4.95;;;3.00;;
55065;SDS011;40964;42.114;24.220;2022-08-11T11:27:53;3.42;;;3.10;;
55065;SDS011;40964;42.114;24.220;2022-08-11T11:30:41;6.15;;;2.85;;
55065;SDS011;40964;42.114;24.220;2022-08-11T11:33:22;3.00;;;2.80;;
55065;SDS011;40964;42.114;24.220;2022-08-11T11:38:31;4.72;;;3.30;;
55065;SDS011;40964;42.114;24.220;2022-08-11T11:40:56;3.50;;;3.20;;
55065;SDS011;40964;42.114;24.220;2022-08-11T11:43:41;3.30;;;3.00;;
55065;SDS011;40964;42.114;24.220;2022-08-11T11:46:09;3.97;;;3.00;;
55065;SDS011;40964;42.114;24.220;2022-08-11T11:48:35;3.42;;;3.13;;
55065;SDS011;40964;42.114;24.220;2022-08-11T11:51:01;3.75;;;3.45;;
55065;SDS011;40964;42.114;24.220;2022-08-11T11:53:27;3.30;;;3.00;;
55065;SDS011;40964;42.114;24.220;2022-08-11T11:55:53;3.28;;;2.97;;
55065;SDS011;40964;42.114;24.220;2022-08-11T11:58:20;4.03;;;3.20;;
55065;SDS011;40964;42.114;24.220;2022-08-11T12:01:05;3.10;;;2.85;;
55065;SDS011;40964;42.114;24.220;2022-08-11T12:03:40;3.30;;;3.00;;
55065;SDS011;40964;42.114;24.220;2022-08-11T12:06:10;4.30;;;2.75;;
55065;SDS011;40964;42.114;24.220;2022-08-11T12:08:40;3.30;;;3.00;;
55065;SDS011;40964;42.114;24.220;2022-08-11T12:11:09;3.60;;;3.30;;
55065;SDS011;40964;42.114;24.220;2022-08-11T12:13:58;3.33;;;3.03;;
55065;SDS011;40964;42.114;24.220;2022-08-11T12:16:27;3.70;;;3.22;;
55065;SDS011;40964;42.114;24.220;2022-08-11T12:18:54;4.30;;;2.83;;
55065;SDS011;40964;42.114;24.220;2022-08-11T12:21:23;3.55;;;3.25;;
55065;SDS011;40964;42.114;24.220;2022-08-11T12:23:51;3.78;;;3.35;;
55065;SDS011;40964;42.114;24.220;2022-08-11T12:26:37;3.42;;;3.13;;
55065;SDS011;40964;42.114;24.220;2022-08-11T12:29:21;6.00;;;3.08;;
55065;SDS011;40964;42.114;24.220;2022-08-11T12:31:51;3.67;;;3.17;;
55065;SDS011;40964;42.114;24.220;2022-08-11T12:34:19;4.93;;;3.20;;
55065;SDS011;40964;42.114;24.220;2022-08-11T12:36:47;3.97;;;3.55;;
55065;SDS011;40964;42.114;24.220;2022-08-11T12:39:21;5.97;;;3.53;;
55065;SDS011;40964;42.114;24.220;2022-08-11T12:42:08;5.60;;;4.18;;
55065;SDS011;40964;42.114;24.220;2022-08-11T12:44:54;3.90;;;3.50;;
55065;SDS011;40964;42.114;24.220;2022-08-11T12:47:41;3.67;;;3.38;;
55065;SDS011;40964;42.114;24.220;2022-08-11T12:50:30;3.63;;;3.33;;
55065;SDS011;40964;42.114;24.220;2022-08-11T12:53:15;3.72;;;3.42;;
55065;SDS011;40964;42.114;24.220;2022-08-11T12:55:41;6.10;;;3.42;;
55065;SDS011;40964;42.114;24.220;2022-08-11T12:58:26;4.25;;;3.30;;
55065;SDS011;40964;42.114;24.220;2022-08-11T13:00:52;3.58;;;3.17;;
55065;SDS011;40964;42.114;24.220;2022-08-11T13:03:37;5.15;;;3.17;;
55065;SDS011;40964;42.114;24.220;2022-08-11T13:06:22;3.40;;;3.10;;
55065;SDS011;40964;42.114;24.220;2022-08-11T13:08:48;3.40;;;3.10;;
55065;SDS011;40964;42.114;24.220;2022-08-11T13:11:15;3.63;;;3.20;;
55065;SDS011;40964;42.114;24.220;2022-08-11T13:14:00;3.95;;;3.55;;
55065;SDS011;40964;42.114;24.220;2022-08-11T13:16:28;4.25;;;3.85;;
55065;SDS011;40964;42.114;24.220;2022-08-11T13:18:56;4.85;;;3.90;;
55065;SDS011;40964;42.114;24.220;2022-08-11T13:21:24;4.13;;;3.72;;
55065;SDS011;40964;42.114;24.220;2022-08-11T13:23:52;4.05;;;3.65;;
55065;SDS011;40964;42.114;24.220;2022-08-11T13:26:21;4.88;;;4.20;;
55065;SDS011;40964;42.114;24.220;2022-08-11T13:28:48;4.80;;;4.05;;
55065;SDS011;40964;42.114;24.220;2022-08-11T13:31:15;5.38;;;3.85;;
55065;SDS011;40964;42.114;24.220;2022-08-11T13:33:42;4.15;;;3.75;;
55065;SDS011;40964;42.114;24.220;2022-08-11T13:36:11;4.38;;;3.97;;
55065;SDS011;40964;42.114;24.220;2022-08-11T13:38:37;6.95;;;4.30;;
55065;SDS011;40964;42.114;24.220;2022-08-11T13:41:05;4.50;;;3.90;;
55065;SDS011;40964;42.114;24.220;2022-08-11T13:43:51;4.55;;;3.83;;
55065;SDS011;40964;42.114;24.220;2022-08-11T13:46:19;7.47;;;4.32;;
55065;SDS011;40964;42.114;24.220;2022-08-11T13:48:46;5.68;;;4.10;;
55065;SDS011;40964;42.114;24.220;2022-08-11T13:51:13;4.78;;;3.95;;
55065;SDS011;40964;42.114;24.220;2022-08-11T13:56:55;4.40;;;3.70;;
55065;SDS011;40964;42.114;24.220;2022-08-11T13:59:24;4.65;;;4.03;;
55065;SDS011;40964;42.114;24.220;2022-08-11T14:01:52;12.75;;;5.15;;
55065;SDS011;40964;42.114;24.220;2022-08-11T14:07:01;8.43;;;5.80;;
55065;SDS011;40964;42.114;24.220;2022-08-11T14:09:31;8.05;;;5.53;;
55065;SDS011;40964;42.114;24.220;2022-08-11T14:12:09;7.45;;;5.97;;
55065;SDS011;40964;42.114;24.220;2022-08-11T14:15:01;8.10;;;5.90;;
55065;SDS011;40964;42.114;24.220;2022-08-11T14:17:32;9.48;;;6.10;;
55065;SDS011;40964;42.114;24.220;2022-08-11T14:20:00;7.88;;;5.47;;
55065;SDS011;40964;42.114;24.220;2022-08-11T14:22:29;6.90;;;5.53;;
55065;SDS011;40964;42.114;24.220;2022-08-11T14:24:56;6.25;;;5.20;;
55065;SDS011;40964;42.114;24.220;2022-08-11T14:27:22;6.63;;;5.00;;
55065;SDS011;40964;42.114;24.220;2022-08-11T14:29:53;6.57;;;5.70;;
55065;SDS011;40964;42.114;24.220;2022-08-11T14:32:20;6.45;;;5.10;;
55065;SDS011;40964;42.114;24.220;2022-08-11T14:34:46;7.82;;;5.40;;
55065;SDS011;40964;42.114;24.220;2022-08-11T14:37:14;8.38;;;5.88;;
55065;SDS011;40964;42.114;24.220;2022-08-11T14:42:16;8.43;;;5.60;;
55065;SDS011;40964;42.114;24.220;2022-08-11T14:45:03;13.75;;;6.07;;
55065;SDS011;40964;42.114;24.220;2022-08-11T14:47:55;13.68;;;7.07;;
55065;SDS011;40964;42.114;24.220;2022-08-11T14:50:26;8.00;;;5.47;;
55065;SDS011;40964;42.114;24.220;2022-08-11T14:52:55;6.63;;;5.00;;
55065;SDS011;40964;42.114;24.220;2022-08-11T14:55:23;9.18;;;5.13;;
55065;SDS011;40964;42.114;24.220;2022-08-11T14:58:10;7.45;;;4.90;;
55065;SDS011;40964;42.114;24.220;2022-08-11T15:00:37;6.65;;;4.68;;
55065;SDS011;40964;42.114;24.220;2022-08-11T15:03:05;5.28;;;4.55;;
55065;SDS011;40964;42.114;24.220;2022-08-11T15:05:34;6.22;;;4.63;;
55065;SDS011;40964;42.114;24.220;2022-08-11T15:08:03;5.60;;;4.40;;
55065;SDS011;40964;42.114;24.220;2022-08-11T15:10:30;6.70;;;4.63;;
55065;SDS011;40964;42.114;24.220;2022-08-11T15:12:56;9.25;;;4.55;;
55065;SDS011;40964;42.114;24.220;2022-08-11T15:15:23;8.45;;;5.07;;
55065;SDS011;40964;42.114;24.220;2022-08-11T15:18:09;7.40;;;4.43;;
55065;SDS011;40964;42.114;24.220;2022-08-11T15:20:41;12.98;;;7.43;;
55065;SDS011;40964;42.114;24.220;2022-08-11T15:23:26;7.47;;;4.72;;
55065;SDS011;40964;42.114;24.220;2022-08-11T15:26:12;7.10;;;4.65;;
55065;SDS011;40964;42.114;24.220;2022-08-11T15:28:43;6.00;;;4.05;;
55065;SDS011;40964;42.114;24.220;2022-08-11T15:31:32;4.93;;;3.50;;
55065;SDS011;40964;42.114;24.220;2022-08-11T15:34:19;5.40;;;4.13;;
55065;SDS011;40964;42.114;24.220;2022-08-11T15:37:07;6.38;;;4.40;;
55065;SDS011;40964;42.114;24.220;2022-08-11T15:40:02;5.68;;;4.35;;
55065;SDS011;40964;42.114;24.220;2022-08-11T15:46:02;6.28;;;4.40;;
55065;SDS011;40964;42.114;24.220;2022-08-11T15:51:40;6.47;;;4.43;;
55065;SDS011;40964;42.114;24.220;2022-08-11T15:54:02;7.88;;;4.60;;
55065;SDS011;40964;42.114;24.220;2022-08-11T15:56:34;8.38;;;5.10;;
55065;SDS011;40964;42.114;24.220;2022-08-11T15:59:02;6.63;;;4.30;;
55065;SDS011;40964;42.114;24.220;2022-08-11T16:01:48;5.93;;;4.30;;
55065;SDS011;40964;42.114;24.220;2022-08-11T16:04:36;6.40;;;4.72;;
55065;SDS011;40964;42.114;24.220;2022-08-11T16:10:03;9.57;;;4.82;;
55065;SDS011;40964;42.114;24.220;2022-08-11T16:15:10;5.18;;;4.05;;
55065;SDS011;40964;42.114;24.220;2022-08-11T16:17:56;7.20;;;4.30;;
55065;SDS011;40964;42.114;24.220;2022-08-11T16:20:26;6.07;;;4.78;;
55065;SDS011;40964;42.114;24.220;2022-08-11T16:22:54;5.38;;;4.22;;
55065;SDS011;40964;42.114;24.220;2022-08-11T16:25:23;7.28;;;4.20;;
55065;SDS011;40964;42.114;24.220;2022-08-11T16:27:56;6.25;;;4.72;;
55065;SDS011;40964;42.114;24.220;2022-08-11T16:30:33;8.57;;;5.72;;
55065;SDS011;40964;42.114;24.220;2022-08-11T16:33:01;12.38;;;6.07;;
55065;SDS011;40964;42.114;24.220;2022-08-11T16:35:32;7.70;;;6.10;;
55065;SDS011;40964;42.114;24.220;2022-08-11T16:38:17;9.95;;;7.43;;
55065;SDS011;40964;42.114;24.220;2022-08-11T16:41:04;6.90;;;4.63;;
55065;SDS011;40964;42.114;24.220;2022-08-11T16:43:37;8.73;;;5.32;;
55065;SDS011;40964;42.114;24.220;2022-08-11T16:46:26;9.93;;;4.82;;
55065;SDS011;40964;42.114;24.220;2022-08-11T16:49:16;9.52;;;6.07;;
55065;SDS011;40964;42.114;24.220;2022-08-11T16:51:46;44.90;;;19.73;;
55065;SDS011;40964;42.114;24.220;2022-08-11T16:54:12;38.15;;;16.38;;
55065;SDS011;40964;42.114;24.220;2022-08-11T16:57:12;52.60;;;20.92;;
55065;SDS011;40964;42.114;24.220;2022-08-11T16:59:57;18.50;;;8.70;;
55065;SDS011;40964;42.114;24.220;2022-08-11T17:02:27;11.90;;;5.22;;
55065;SDS011;40964;42.114;24.220;2022-08-11T17:05:16;6.70;;;5.10;;
55065;SDS011;40964;42.114;24.220;2022-08-11T17:08:03;7.15;;;4.93;;
55065;SDS011;40964;42.114;24.220;2022-08-11T17:10:51;5.80;;;4.32;;
55065;SDS011;40964;42.114;24.220;2022-08-11T17:13:41;7.60;;;5.20;;
55065;SDS011;40964;42.114;24.220;2022-08-11T17:16:09;7.38;;;5.07;;
55065;SDS011;40964;42.114;24.220;2022-08-11T17:21:15;5.68;;;4.55;;
55065;SDS011;40964;42.114;24.220;2022-08-11T17:23:48;7.15;;;4.30;;
55065;SDS011;40964;42.114;24.220;2022-08-11T17:26:23;7.82;;;4.60;;
55065;SDS011;40964;42.114;24.220;2022-08-11T17:32:02;7.57;;;4.15;;
55065;SDS011;40964;42.114;24.220;2022-08-11T17:35:03;8.80;;;4.63;;
55065;SDS011;40964;42.114;24.220;2022-08-11T17:37:52;9.10;;;4.93;;
55065;SDS011;40964;42.114;24.220;2022-08-11T17:40:21;10.27;;;5.28;;
55065;SDS011;40964;42.114;24.220;2022-08-11T17:42:52;4.93;;;3.97;;
55065;SDS011;40964;42.114;24.220;2022-08-11T17:45:39;5.38;;;4.10;;
55065;SDS011;40964;42.114;24.220;2022-08-11T17:48:24;6.28;;;4.35;;
55065;SDS011;40964;42.114;24.220;2022-08-11T17:50:53;5.15;;;3.90;;
55065;SDS011;40964;42.114;24.220;2022-08-11T17:53:23;7.40;;;4.30;;
55065;SDS011;40964;42.114;24.220;2022-08-11T17:56:08;7.80;;;4.53;;
55065;SDS011;40964;42.114;24.220;2022-08-11T17:58:57;6.05;;;4.85;;
55065;SDS011;40964;42.114;24.220;2022-08-11T18:01:42;6.78;;;3.72;;
55065;SDS011;40964;42.114;24.220;2022-08-11T18:04:10;5.53;;;4.30;;
55065;SDS011;40964;42.114;24.220;2022-08-11T18:06:37;4.72;;;3.75;;
55065;SDS011;40964;42.114;24.220;2022-08-11T18:09:07;8.23;;;5.40;;
55065;SDS011;40964;42.114;24.220;2022-08-11T18:11:56;6.95;;;4.38;;
55065;SDS011;40964;42.114;24.220;2022-08-11T18:14:44;6.85;;;5.18;;
55065;SDS011;40964;42.114;24.220;2022-08-11T18:17:31;8.10;;;5.18;;
55065;SDS011;40964;42.114;24.220;2022-08-11T18:20:17;7.00;;;4.72;;
55065;SDS011;40964;42.114;24.220;2022-08-11T18:23:04;5.22;;;4.40;;
55065;SDS011;40964;42.114;24.220;2022-08-11T18:25:52;7.65;;;4.00;;
55065;SDS011;40964;42.114;24.220;2022-08-11T18:28:43;5.88;;;4.20;;
55065;SDS011;40964;42.114;24.220;2022-08-11T18:31:33;6.30;;;4.57;;
55065;SDS011;40964;42.114;24.220;2022-08-11T18:34:22;7.00;;;4.43;;
55065;SDS011;40964;42.114;24.220;2022-08-11T18:37:22;7.10;;;4.90;;
55065;SDS011;40964;42.114;24.220;2022-08-11T18:40:11;6.40;;;4.18;;
55065;SDS011;40964;42.114;24.220;2022-08-11T18:43:01;5.65;;;4.07;;
55065;SDS011;40964;42.114;24.220;2022-08-11T18:45:50;7.35;;;4.90;;
55065;SDS011;40964;42.114;24.220;2022-08-11T18:48:36;10.68;;;4.55;;
55065;SDS011;40964;42.114;24.220;2022-08-11T18:51:24;9.23;;;5.38;;
55065;SDS011;40964;42.114;24.220;2022-08-11T18:54:11;7.68;;;5.07;;
55065;SDS011;40964;42.114;24.220;2022-08-11T18:56:58;6.93;;;4.97;;
55065;SDS011;40964;42.114;24.220;2022-08-11T18:59:46;5.55;;;4.45;;
55065;SDS011;40964;42.114;24.220;2022-08-11T19:02:34;8.27;;;4.93;;
55065;SDS011;40964;42.114;24.220;2022-08-11T19:05:21;5.95;;;4.55;;
55065;SDS011;40964;42.114;24.220;2022-08-11T19:08:06;6.82;;;4.75;;
55065;SDS011;40964;42.114;24.220;2022-08-11T19:10:52;7.63;;;4.82;;
55065;SDS011;40964;42.114;24.220;2022-08-11T19:13:36;7.68;;;4.63;;
55065;SDS011;40964;42.114;24.220;2022-08-11T19:16:23;7.03;;;5.00;;
55065;SDS011;40964;42.114;24.220;2022-08-11T19:19:08;6.72;;;4.93;;
55065;SDS011;40964;42.114;24.220;2022-08-11T19:21:56;11.00;;;4.75;;
55065;SDS011;40964;42.114;24.220;2022-08-11T19:24:41;6.43;;;4.65;;
55065;SDS011;40964;42.114;24.220;2022-08-11T19:27:27;5.40;;;4.15;;
55065;SDS011;40964;42.114;24.220;2022-08-11T19:30:12;6.72;;;4.28;;
55065;SDS011;40964;42.114;24.220;2022-08-11T19:32:57;6.88;;;4.53;;
55065;SDS011;40964;42.114;24.220;2022-08-11T19:35:42;5.68;;;4.07;;
55065;SDS011;40964;42.114;24.220;2022-08-11T19:38:28;6.55;;;4.30;;
55065;SDS011;40964;42.114;24.220;2022-08-11T19:41:12;6.18;;;4.10;;
55065;SDS011;40964;42.114;24.220;2022-08-11T19:43:57;7.20;;;4.22;;
55065;SDS011;40964;42.114;24.220;2022-08-11T19:46:42;6.55;;;4.43;;
55065;SDS011;40964;42.114;24.220;2022-08-11T19:49:27;7.00;;;4.22;;
55065;SDS011;40964;42.114;24.220;2022-08-11T19:52:13;4.35;;;3.60;;